Time;durP1;ratioP1;P1;durP2;ratioP2;P2;SDS_P1;SDS_P2;PMS_P1;PMS_P2;Temp;Humidity;BMP_temperature;BMP_pressure;BME280_temperature;BME280_humidity;BME280_pressure;Samples;Min_cycle;Max_cycle;Signal;HPM_P1;HPM_P2
2022/05/25 00:00:11;;;;;;;1.23;0.70;;;12.60;99.90;;;;;;4967494;28;20058;-76
2022/05/25 00:02:38;;;;;;;0.55;0.55;;;12.60;99.90;;;;;;4967611;28;20043;-76
2022/05/25 00:05:10;;;;;;;1.65;0.50;;;12.60;99.90;;;;;;4962613;28;20214;-76
2022/05/25 00:07:36;;;;;;;2.88;1.25;;;12.50;99.90;;;;;;4961292;29;20023;-75
2022/05/25 00:10:03;;;;;;;2.53;0.50;;;12.60;99.90;;;;;;4960059;28;20404;-75
2022/05/25 00:12:28;;;;;;;0.50;0.50;;;12.60;99.90;;;;;;4960245;28;20030;-76
2022/05/25 00:14:54;;;;;;;0.60;0.60;;;12.70;99.90;;;;;;4962264;28;20039;-76
2022/05/25 00:17:20;;;;;;;3.50;0.50;;;12.80;99.90;;;;;;4965041;29;20062;-76
2022/05/25 00:20:01;;;;;;;2.05;1.42;;;12.80;99.90;;;;;;4995708;28;20023;-76
2022/05/25 00:22:40;;;;;;;1.85;0.77;;;12.80;99.90;;;;;;4966633;28;20142;-76
2022/05/25 00:25:08;;;;;;;0.73;0.60;;;12.80;99.90;;;;;;4965391;29;20023;-76
2022/05/25 00:27:34;;;;;;;0.75;0.50;;;12.70;99.90;;;;;;4963694;29;20480;-76
2022/05/25 00:30:00;;;;;;;7.35;1.13;;;12.80;99.90;;;;;;4963759;28;20362;-76
2022/05/25 00:32:26;;;;;;;0.47;0.40;;;12.80;99.90;;;;;;4958404;28;20035;-76
2022/05/25 00:34:51;;;;;;;3.55;0.38;;;12.70;99.90;;;;;;4963290;29;20031;-76
2022/05/25 00:37:17;;;;;;;1.73;0.50;;;12.70;99.90;;;;;;4968395;29;20119;-78
2022/05/25 00:39:42;;;;;;;1.00;0.50;;;12.60;99.90;;;;;;4963836;29;20024;-76
2022/05/25 00:42:08;;;;;;;0.50;0.50;;;12.60;99.90;;;;;;4956455;28;20082;-76
2022/05/25 00:44:34;;;;;;;0.90;0.82;;;12.60;99.90;;;;;;4958155;29;20047;-77
2022/05/25 00:47:00;;;;;;;0.90;0.50;;;12.50;99.90;;;;;;4960816;29;20023;-76
2022/05/25 00:49:32;;;;;;;3.45;0.50;;;12.50;99.90;;;;;;4963455;29;20023;-76
2022/05/25 00:52:07;;;;;;;0.60;0.60;;;12.50;99.90;;;;;;4964696;29;20055;-76
2022/05/25 00:54:39;;;;;;;0.50;0.45;;;12.50;99.90;;;;;;4962048;29;20515;-75
2022/05/25 00:57:13;;;;;;;2.20;0.82;;;12.50;99.90;;;;;;4962792;29;20031;-76
2022/05/25 01:00:02;;;;;;;1.17;1.08;;;12.50;99.90;;;;;;4960126;29;20138;-76
2022/05/25 01:02:29;;;;;;;1.20;0.93;;;12.40;99.90;;;;;;4958031;29;20046;-76
2022/05/25 01:04:55;;;;;;;0.82;0.80;;;12.40;99.90;;;;;;4955206;29;20436;-75
2022/05/25 01:07:24;;;;;;;0.77;0.77;;;12.40;99.90;;;;;;4954879;29;20039;-75
2022/05/25 01:10:08;;;;;;;0.38;0.38;;;12.30;99.90;;;;;;4991219;28;20023;-76
2022/05/25 01:12:43;;;;;;;0.85;0.82;;;12.30;99.90;;;;;;4989038;28;20122;-76
2022/05/25 01:15:08;;;;;;;1.27;0.60;;;12.30;99.90;;;;;;4961781;29;20488;-76
2022/05/25 01:17:52;;;;;;;0.93;0.80;;;12.30;99.90;;;;;;4990160;28;20031;-76
2022/05/25 01:20:49;;;;;;;1.60;1.13;;;12.30;99.90;;;;;;4991249;28;20023;-76
2022/05/25 01:23:50;;;;;;;0.75;0.60;;;12.30;99.90;;;;;;4959936;28;20035;-76
2022/05/25 01:26:31;;;;;;;3.17;0.50;;;12.30;99.90;;;;;;4963229;28;20168;-76
2022/05/25 01:29:22;;;;;;;1.38;0.70;;;12.20;99.90;;;;;;4993741;28;20028;-76
2022/05/25 01:32:07;;;;;;;0.52;0.52;;;12.10;99.90;;;;;;4991812;28;20023;-76
2022/05/25 01:34:44;;;;;;;2.13;0.82;;;12.00;99.90;;;;;;4988865;28;20062;-76
2022/05/25 01:37:29;;;;;;;1.38;0.60;;;12.00;99.90;;;;;;4956218;29;20341;-76
2022/05/25 01:40:21;;;;;;;2.88;0.70;;;12.00;99.90;;;;;;4958114;29;20023;-76
2022/05/25 01:42:55;;;;;;;0.65;0.30;;;12.00;99.90;;;;;;4943311;29;20050;-76
2022/05/25 01:45:24;;;;;;;2.17;0.50;;;11.90;99.90;;;;;;4959345;29;20023;-76
2022/05/25 01:47:51;;;;;;;1.80;0.47;;;11.90;99.90;;;;;;4957176;29;20027;-76
2022/05/25 01:50:29;;;;;;;2.92;1.20;;;11.90;99.90;;;;;;4957220;29;20267;-75
2022/05/25 01:52:59;;;;;;;0.52;0.52;;;11.90;99.90;;;;;;4958732;28;20030;-76
2022/05/25 01:55:53;;;;;;;0.57;0.57;;;11.80;99.90;;;;;;4959604;29;20420;-76
2022/05/25 01:58:21;;;;;;;11.05;1.38;;;11.90;99.90;;;;;;4956869;28;20064;-76
2022/05/25 02:00:56;;;;;;;2.10;0.50;;;11.90;99.90;;;;;;4957035;29;20055;-75
2022/05/25 02:06:29;;;;;;;1.38;0.90;;;11.80;99.90;;;;;;4959024;29;20030;-75
2022/05/25 02:09:09;;;;;;;2.17;0.63;;;11.70;99.90;;;;;;4958098;28;20035;-76
2022/05/25 02:11:42;;;;;;;2.95;0.70;;;11.70;99.90;;;;;;4959136;29;20476;-75
2022/05/25 02:14:46;;;;;;;2.30;1.33;;;11.70;99.90;;;;;;4957999;29;20029;-76
2022/05/25 02:17:31;;;;;;;0.88;0.80;;;11.80;99.90;;;;;;4987713;28;20507;-76
2022/05/25 02:20:14;;;;;;;0.47;0.47;;;11.80;99.90;;;;;;4955846;28;20055;-76
2022/05/25 02:22:51;;;;;;;0.63;0.60;;;11.80;99.90;;;;;;4961152;28;20061;-76
2022/05/25 02:26:22;;;;;;;2.00;0.50;;;11.80;99.90;;;;;;4960961;29;20063;-76
2022/05/25 02:28:59;;;;;;;1.00;0.47;;;11.70;99.90;;;;;;4926535;28;20114;-75
2022/05/25 02:31:30;;;;;;;0.90;0.70;;;11.60;99.90;;;;;;4959494;29;20034;-76
2022/05/25 02:34:00;;;;;;;0.47;0.47;;;11.60;99.90;;;;;;4959275;29;20033;-76
2022/05/25 02:36:28;;;;;;;2.55;0.73;;;11.60;99.90;;;;;;4959091;29;20099;-76
2022/05/25 02:38:55;;;;;;;1.98;0.68;;;11.60;99.90;;;;;;4956916;29;20019;-76
2022/05/25 02:41:34;;;;;;;3.13;1.08;;;11.50;99.90;;;;;;4987988;28;20051;-76
2022/05/25 02:44:02;;;;;;;2.28;0.55;;;11.50;99.90;;;;;;4988608;28;20028;-76
2022/05/25 02:46:28;;;;;;;0.77;0.77;;;11.50;99.90;;;;;;4959292;29;20023;-76
2022/05/25 02:48:54;;;;;;;0.70;0.70;;;11.50;99.90;;;;;;4987998;28;20039;-75
2022/05/25 02:51:20;;;;;;;0.50;0.50;;;11.50;99.90;;;;;;4987886;28;20086;-76
2022/05/25 02:53:46;;;;;;;1.20;0.70;;;11.50;99.90;;;;;;4960179;29;20027;-75
2022/05/25 02:56:12;;;;;;;1.48;0.65;;;11.50;99.90;;;;;;4961721;29;20476;-75
2022/05/25 02:58:38;;;;;;;1.05;0.73;;;;;;;;;;4959698;29;20047;-76
2022/05/25 03:01:05;;;;;;;1.52;0.65;;;11.50;99.90;;;;;;4991879;28;20122;-76
2022/05/25 03:03:33;;;;;;;1.80;1.20;;;11.50;99.90;;;;;;4959734;28;20023;-76
2022/05/25 03:05:59;;;;;;;0.77;0.77;;;;;;;;;;4958230;28;20031;-76
2022/05/25 03:08:26;;;;;;;0.88;0.50;;;11.50;99.90;;;;;;4952421;29;20039;-76
2022/05/25 03:10:52;;;;;;;1.65;0.50;;;11.50;99.90;;;;;;4951026;29;20027;-76
2022/05/25 03:13:17;;;;;;;0.60;0.52;;;11.50;99.90;;;;;;4952850;29;20362;-76
2022/05/25 03:15:43;;;;;;;1.20;0.70;;;11.60;99.90;;;;;;4954082;29;20035;-76
2022/05/25 03:18:09;;;;;;;0.73;0.73;;;11.50;99.90;;;;;;4954809;28;20038;-77
2022/05/25 03:20:35;;;;;;;2.58;0.63;;;11.50;99.90;;;;;;4953620;29;20098;-76
2022/05/25 03:23:00;;;;;;;0.57;0.57;;;11.40;99.90;;;;;;4953064;29;20359;-76
2022/05/25 03:25:26;;;;;;;0.60;0.60;;;11.30;99.90;;;;;;4952539;29;20028;-76
2022/05/25 03:27:52;;;;;;;0.50;0.50;;;11.30;99.90;;;;;;4951577;29;20031;-75
2022/05/25 03:30:20;;;;;;;7.72;1.85;;;11.30;99.90;;;;;;4952075;29;20333;-76
2022/05/25 03:32:45;;;;;;;1.40;0.60;;;11.20;99.90;;;;;;4951797;29;20111;-76
2022/05/25 03:35:11;;;;;;;0.57;0.57;;;11.30;99.90;;;;;;4952503;29;20503;-75
2022/05/25 03:37:38;;;;;;;2.60;1.08;;;11.30;99.90;;;;;;4951633;29;20047;-76
2022/05/25 03:40:06;;;;;;;1.08;0.55;;;11.30;99.90;;;;;;4953660;29;20028;-76
2022/05/25 03:42:33;;;;;;;1.75;0.93;;;11.20;99.90;;;;;;4952337;29;20464;-76
2022/05/25 03:44:58;;;;;;;1.08;0.90;;;11.20;99.90;;;;;;4984765;28;20115;-76
2022/05/25 03:47:24;;;;;;;1.15;0.85;;;11.10;99.90;;;;;;4954222;29;20114;-76
2022/05/25 03:49:50;;;;;;;2.45;0.80;;;11.10;99.90;;;;;;4955589;29;20031;-76
2022/05/25 03:52:26;;;;;;;0.60;0.60;;;11.00;99.90;;;;;;4957220;29;20074;-76
2022/05/25 03:54:52;;;;;;;0.60;0.60;;;10.90;99.90;;;;;;4960276;29;20019;-76
2022/05/25 03:57:18;;;;;;;1.10;0.60;;;10.80;99.90;;;;;;4995365;28;20051;-77
2022/05/25 03:59:45;;;;;;;0.57;0.55;;;10.60;99.90;;;;;;4962166;29;20515;-76
2022/05/25 04:02:11;;;;;;;3.63;0.70;;;10.60;99.90;;;;;;4965857;29;20027;-76
2022/05/25 04:04:37;;;;;;;0.43;0.40;;;10.60;99.90;;;;;;4968003;29;20020;-76
2022/05/25 04:07:03;;;;;;;1.80;0.75;;;10.50;99.90;;;;;;4970715;28;20574;-76
2022/05/25 04:09:29;;;;;;;2.08;1.35;;;11.50;99.90;;;;;;4966261;28;20042;-75
2022/05/25 04:12:00;;;;;;;4.57;1.83;;;10.60;99.90;;;;;;4968843;29;20027;-76
2022/05/25 04:14:26;;;;;;;1.13;0.70;;;10.70;99.90;;;;;;4965822;29;20082;-76
2022/05/25 04:16:52;;;;;;;1.23;0.70;;;10.80;99.90;;;;;;4996441;28;20066;-77
2022/05/25 04:19:22;;;;;;;1.42;0.95;;;11.00;99.90;;;;;;4972096;28;20039;-76
2022/05/25 04:21:49;;;;;;;1.13;0.50;;;11.00;99.90;;;;;;4972119;29;20035;-75
2022/05/25 04:24:16;;;;;;;0.80;0.80;;;;;;;;;;4987805;28;20015;-76
2022/05/25 04:26:51;;;;;;;1.92;1.08;;;11.20;99.90;;;;;;4972518;29;20027;-76
2022/05/25 04:29:17;;;;;;;0.63;0.40;;;11.40;99.90;;;;;;4970430;29;20042;-76
2022/05/25 04:31:44;;;;;;;2.00;0.70;;;11.50;99.90;;;;;;4994879;28;20023;-76
2022/05/25 04:34:13;;;;;;;0.45;0.45;;;11.60;99.90;;;;;;4965941;29;20120;-76
2022/05/25 04:36:41;;;;;;;0.82;0.73;;;11.50;99.90;;;;;;4955834;29;20039;-76
2022/05/25 04:39:07;;;;;;;1.77;0.70;;;11.60;99.90;;;;;;4956466;29;20085;-76
2022/05/25 04:41:35;;;;;;;3.33;1.15;;;11.80;99.90;;;;;;4956721;29;20447;-76
2022/05/25 04:44:03;;;;;;;3.35;0.52;;;11.80;99.90;;;;;;4957461;29;20461;-76
2022/05/25 04:46:28;;;;;;;0.95;0.50;;;11.70;99.90;;;;;;4956590;29;20023;-76
2022/05/25 04:48:54;;;;;;;0.70;0.70;;;11.80;99.90;;;;;;4957717;29;20038;-77
2022/05/25 04:51:19;;;;;;;0.90;0.50;;;11.70;99.90;;;;;;4956406;29;20028;-76
2022/05/25 04:53:45;;;;;;;0.80;0.68;;;11.60;99.90;;;;;;4987102;28;20503;-76
2022/05/25 04:58:56;;;;;;;0.95;0.65;;;11.70;99.90;;;;;;4956818;29;20531;-76
2022/05/25 05:01:22;;;;;;;0.70;0.70;;;11.60;99.90;;;;;;4956837;29;20027;-76
2022/05/25 05:03:49;;;;;;;1.95;0.90;;;11.60;99.90;;;;;;4956903;29;20031;-76
2022/05/25 05:06:15;;;;;;;1.77;0.90;;;11.50;99.90;;;;;;4955585;29;20051;-76
2022/05/25 05:08:41;;;;;;;1.10;0.80;;;11.50;99.90;;;;;;4957149;29;20019;-76
2022/05/25 05:11:18;;;;;;;5.00;1.05;;;11.40;99.90;;;;;;4955182;29;20027;-76
2022/05/25 05:13:45;;;;;;;1.63;0.90;;;11.50;99.90;;;;;;4956266;29;20039;-76
2022/05/25 05:16:14;;;;;;;0.70;0.50;;;11.50;99.90;;;;;;4954773;29;20039;-76
2022/05/25 05:18:41;;;;;;;;;;;11.70;99.90;;;;;;4956886;29;20054;-76
2022/05/25 05:21:09;;;;;;;0.70;0.70;;;11.80;99.90;;;;;;4955411;28;19923;-76
2022/05/25 05:23:38;;;;;;;1.02;0.50;;;11.80;99.90;;;;;;4955109;29;20067;-76
2022/05/25 05:26:06;;;;;;;1.10;0.52;;;11.90;99.90;;;;;;4955871;29;20082;-76
2022/05/25 05:28:34;;;;;;;4.05;0.68;;;12.00;99.90;;;;;;4955488;28;20032;-75
2022/05/25 05:31:02;;;;;;;0.65;0.65;;;12.10;99.90;;;;;;4957306;28;20039;-76
2022/05/25 05:33:32;;;;;;;3.92;0.98;;;12.10;99.90;;;;;;4988097;28;20110;-76
2022/05/25 05:36:19;;;;;;;2.70;0.93;;;12.20;99.90;;;;;;4956436;29;20039;-75
2022/05/25 05:38:52;;;;;;;1.58;0.70;;;12.40;99.90;;;;;;4960477;29;20098;-75
2022/05/25 05:41:21;;;;;;;2.25;0.50;;;12.50;99.90;;;;;;4997408;28;20480;-77
2022/05/25 05:43:46;;;;;;;0.63;0.52;;;12.60;99.90;;;;;;4956865;29;20051;-76
2022/05/25 05:46:16;;;;;;;0.65;0.60;;;12.60;99.90;;;;;;4954276;29;20055;-76
2022/05/25 05:48:42;;;;;;;1.20;1.10;;;12.70;99.90;;;;;;4957803;28;20102;-75
2022/05/25 05:51:11;;;;;;;1.23;0.68;;;12.70;99.90;;;;;;4962748;29;20153;-75
2022/05/25 05:53:40;;;;;;;0.70;0.70;;;12.70;99.90;;;;;;4965130;29;20023;-76
2022/05/25 05:56:08;;;;;;;3.70;0.40;;;12.90;99.90;;;;;;4960709;29;20412;-75
2022/05/25 05:58:36;;;;;;;3.65;0.70;;;13.00;99.90;;;;;;4963608;28;20103;-76
2022/05/25 06:01:03;;;;;;;1.92;0.68;;;12.50;99.90;;;;;;5010227;28;20042;-76
2022/05/25 06:03:29;;;;;;;0.70;0.60;;;13.10;99.90;;;;;;4977613;28;20023;-76
2022/05/25 06:05:57;;;;;;;1.95;1.00;;;13.20;99.90;;;;;;4979369;28;20094;-76
2022/05/25 06:08:26;;;;;;;0.73;0.60;;;13.70;99.90;;;;;;4978032;28;20209;-76
2022/05/25 06:10:52;;;;;;;3.15;0.70;;;14.50;99.90;;;;;;4977927;28;20023;-76
2022/05/25 06:13:18;;;;;;;0.80;0.70;;;15.50;99.90;;;;;;4978352;28;20070;-77
2022/05/25 06:21:23;;;;;;;1.10;0.77;;;14.70;99.90;;;;;;4958009;29;20043;-76
2022/05/25 06:23:49;;;;;;;1.88;0.60;;;14.50;99.90;;;;;;4957604;29;20090;-76
2022/05/25 06:26:15;;;;;;;3.33;0.70;;;14.30;99.90;;;;;;4960144;29;20027;-76
2022/05/25 06:28:42;;;;;;;1.58;0.52;;;14.10;99.90;;;;;;4956235;29;20492;-76
2022/05/25 06:31:07;;;;;;;1.10;0.50;;;14.20;99.90;;;;;;4956468;28;20031;-76
2022/05/25 06:33:34;;;;;;;2.88;0.50;;;14.30;99.90;;;;;;4955827;29;20102;-76
2022/05/25 06:36:18;;;;;;;2.05;0.63;;;14.40;99.90;;;;;;4955790;29;20039;-76
2022/05/25 06:38:45;;;;;;;0.50;0.50;;;14.50;99.90;;;;;;4958189;28;20480;-76
2022/05/25 06:41:12;;;;;;;0.50;0.50;;;14.80;99.90;;;;;;4956818;29;20039;-76
2022/05/25 06:43:37;;;;;;;0.60;0.60;;;15.30;99.90;;;;;;4956696;28;20081;-76
2022/05/25 06:46:08;;;;;;;0.55;0.50;;;15.90;99.90;;;;;;4955607;29;20027;-76
2022/05/25 06:48:33;;;;;;;0.40;0.40;;;16.50;99.90;;;;;;4956460;28;20027;-76
2022/05/25 06:51:12;;;;;;;0.75;0.45;;;16.60;99.90;;;;;;4956127;29;20024;-77
2022/05/25 06:53:38;;;;;;;4.78;0.93;;;16.80;99.90;;;;;;4951477;29;20527;-77
2022/05/25 06:56:04;;;;;;;1.48;0.40;;;18.30;99.90;;;;;;4982598;28;20186;-77
2022/05/25 06:58:30;;;;;;;0.52;0.40;;;19.30;94.00;;;;;;4951353;28;20117;-76
2022/05/25 07:00:56;;;;;;;0.40;0.40;;;18.50;96.80;;;;;;4950583;29;20109;-77
2022/05/25 07:03:22;;;;;;;1.30;1.05;;;18.60;97.50;;;;;;4982582;28;20023;-77
2022/05/25 07:05:47;;;;;;;1.83;0.70;;;18.30;99.90;;;;;;4982661;28;20028;-76
2022/05/25 07:08:13;;;;;;;0.75;0.60;;;18.40;99.90;;;;;;4950063;29;20027;-76
2022/05/25 07:10:45;;;;;;;1.35;0.45;;;18.20;99.90;;;;;;4951483;29;20063;-80
2022/05/25 07:13:15;;;;;;;1.55;0.70;;;17.80;99.90;;;;;;4954025;29;20031;-76
2022/05/25 07:15:42;;;;;;;1.30;0.52;;;17.60;99.90;;;;;;4958604;29;20027;-76
2022/05/25 07:18:09;;;;;;;1.85;0.60;;;18.00;99.90;;;;;;4951558;29;20023;-77
2022/05/25 07:20:35;;;;;;;0.50;0.50;;;18.60;99.90;;;;;;4953253;29;20457;-78
2022/05/25 07:23:00;;;;;;;0.75;0.75;;;18.30;99.90;;;;;;4952660;29;20066;-80
2022/05/25 07:25:26;;;;;;;1.17;0.50;;;18.70;99.80;;;;;;4952897;29;20039;-81
2022/05/25 07:27:52;;;;;;;0.40;0.40;;;19.20;92.30;;;;;;4983776;28;20031;-77
2022/05/25 07:30:18;;;;;;;1.30;0.95;;;19.40;90.40;;;;;;4951698;29;20027;-81
2022/05/25 07:32:45;;;;;;;1.25;0.40;;;20.00;81.10;;;;;;4951370;29;20097;-82
2022/05/25 07:35:13;;;;;;;0.70;0.63;;;19.20;90.50;;;;;;4951866;29;20102;-80
2022/05/25 07:37:41;;;;;;;1.17;1.00;;;19.00;85.30;;;;;;4951743;29;20031;-77
2022/05/25 07:40:18;;;;;;;0.50;0.50;;;19.50;82.40;;;;;;4951927;29;20113;-82
2022/05/25 07:42:48;;;;;;;1.40;1.17;;;19.40;83.40;;;;;;4952056;29;20136;-78
2022/05/25 07:45:14;;;;;;;0.85;0.75;;;18.20;89.00;;;;;;4951438;29;20023;-79
2022/05/25 07:47:40;;;;;;;2.45;0.52;;;18.80;83.80;;;;;;4951230;29;20027;-77
2022/05/25 07:50:06;;;;;;;2.00;0.43;;;19.50;74.70;;;;;;4982422;28;20126;-81
2022/05/25 07:52:36;;;;;;;0.90;0.50;;;20.60;69.10;;;;;;4954894;28;20074;-77
2022/05/25 07:55:03;;;;;;;3.08;0.50;;;20.90;65.00;;;;;;4955395;29;20027;-80
2022/05/25 07:57:29;;;;;;;0.60;0.60;;;20.40;67.90;;;;;;4953799;29;20031;-79
2022/05/25 07:59:55;;;;;;;1.05;1.05;;;20.90;66.50;;;;;;4954951;28;20054;-77
2022/05/25 08:08:02;;;;;;;1.40;0.73;;;18.80;88.10;;;;;;4955240;29;20042;-77
2022/05/25 08:10:29;;;;;;;0.70;0.70;;;19.40;78.20;;;;;;4954990;29;20019;-77
2022/05/25 08:12:57;;;;;;;1.58;0.82;;;19.00;77.90;;;;;;4954951;29;20033;-83
2022/05/25 08:15:24;;;;;;;1.00;1.00;;;19.20;86.10;;;;;;4954601;28;20412;-77
2022/05/25 08:17:50;;;;;;;0.65;0.65;;;19.60;74.60;;;;;;4954473;29;20330;-78
2022/05/25 08:20:18;;;;;;;3.42;0.80;;;20.40;75.00;;;;;;4954414;29;20043;-80
2022/05/25 08:22:44;;;;;;;2.15;0.85;;;20.00;71.20;;;;;;4954268;29;20023;-79
2022/05/25 08:25:12;;;;;;;1.58;1.05;;;20.10;69.80;;;;;;4954571;29;20082;-77
2022/05/25 08:27:39;;;;;;;2.95;0.77;;;20.00;73.20;;;;;;4954410;28;20038;-79
2022/05/25 08:30:09;;;;;;;1.42;1.33;;;19.80;76.80;;;;;;4954468;29;20069;-78
2022/05/25 08:32:35;;;;;;;3.63;1.00;;;19.60;77.60;;;;;;4954444;29;20081;-79
2022/05/25 08:35:02;;;;;;;1.40;0.73;;;19.70;76.20;;;;;;4954108;29;20037;-80
2022/05/25 08:37:28;;;;;;;2.75;1.20;;;20.00;78.40;;;;;;4954400;29;20082;-78
2022/05/25 08:39:53;;;;;;;2.08;0.75;;;20.40;69.10;;;;;;4954367;29;20468;-77
2022/05/25 08:42:24;;;;;;;2.38;1.00;;;20.50;68.50;;;;;;4954185;29;20047;-77
2022/05/25 08:44:55;;;;;;;1.55;0.82;;;21.10;66.20;;;;;;4954290;29;20023;-82
2022/05/25 08:47:21;;;;;;;0.88;0.88;;;23.50;67.20;;;;;;4984982;28;20031;-79
2022/05/25 08:49:49;;;;;;;1.10;1.00;;;19.10;77.60;;;;;;4985281;28;20114;-78
2022/05/25 08:52:30;;;;;;;1.25;0.90;;;19.10;92.20;;;;;;4990583;28;20031;-80
2022/05/25 08:54:59;;;;;;;1.30;1.17;;;19.10;81.40;;;;;;4952812;29;20361;-78
2022/05/25 08:57:42;;;;;;;1.38;0.90;;;19.50;76.40;;;;;;4953751;29;20035;-84
2022/05/25 09:00:13;;;;;;;1.02;0.93;;;19.50;77.10;;;;;;4953629;29;20110;-77
2022/05/25 09:03:02;;;;;;;1.88;1.60;;;19.90;71.10;;;;;;4952732;28;20054;-77
2022/05/25 09:05:49;;;;;;;5.50;1.55;;;20.70;67.30;;;;;;4943279;29;20043;-77
2022/05/25 09:08:25;;;;;;;1.70;0.90;;;19.70;72.40;;;;;;4953553;29;20162;-77
2022/05/25 09:10:58;;;;;;;1.42;1.08;;;19.60;80.40;;;;;;4953893;29;20074;-78
2022/05/25 09:13:33;;;;;;;3.03;1.20;;;19.70;74.50;;;;;;4953600;29;20027;-75
2022/05/25 09:16:18;;;;;;;0.80;0.80;;;19.70;71.00;;;;;;4953681;29;20032;-87
2022/05/25 09:19:10;;;;;;;1.60;0.60;;;20.00;68.40;;;;;;4983695;28;20114;-81
2022/05/25 09:22:01;;;;;;;0.50;0.50;;;20.10;70.90;;;;;;4950772;29;20139;-81
2022/05/25 09:24:28;;;;;;;0.43;0.43;;;20.20;63.90;;;;;;4952499;28;20027;-78
2022/05/25 09:26:54;;;;;;;0.95;0.60;;;20.30;63.70;;;;;;4950961;29;20106;-74
2022/05/25 09:29:22;;;;;;;0.70;0.70;;;20.70;63.90;;;;;;4951968;29;20446;-80
2022/05/25 09:31:59;;;;;;;0.50;0.50;;;20.20;65.30;;;;;;4950536;29;20033;-88
2022/05/25 09:35:06;;;;;;;0.80;0.70;;;19.70;68.30;;;;;;4951770;28;20035;-84
2022/05/25 09:37:38;;;;;;;1.02;0.82;;;20.40;65.90;;;;;;4930858;29;20047;-75
2022/05/25 09:40:28;;;;;;;1.38;1.02;;;20.50;66.30;;;;;;4930757;29;20028;-79
2022/05/25 09:42:57;;;;;;;1.27;0.82;;;20.40;65.00;;;;;;4960247;28;20045;-79
2022/05/25 09:45:24;;;;;;;1.20;0.70;;;20.40;66.40;;;;;;4972031;28;20019;-78
2022/05/25 09:47:52;;;;;;;1.00;1.00;;;20.30;67.10;;;;;;4972190;28;20106;-78
2022/05/25 09:50:32;;;;;;;0.70;0.70;;;20.00;70.10;;;;;;4971804;28;20029;-79
2022/05/25 09:53:01;;;;;;;2.80;0.80;;;20.20;74.50;;;;;;4970343;28;20114;-79
2022/05/25 09:55:45;;;;;;;0.95;0.95;;;20.00;69.60;;;;;;4972061;28;20026;-79
2022/05/25 09:58:21;;;;;;;1.02;1.00;;;19.70;71.30;;;;;;4971697;28;20054;-78
2022/05/25 10:01:00;;;;;;;0.88;0.88;;;22.10;80.20;;;;;;4970369;28;20487;-78
2022/05/25 10:03:25;;;;;;;1.20;0.90;;;20.10;69.80;;;;;;4970354;28;20082;-77
2022/05/25 10:05:57;;;;;;;0.90;0.88;;;19.80;71.20;;;;;;4971692;28;20494;-79
2022/05/25 10:08:36;;;;;;;0.80;0.60;;;20.30;66.90;;;;;;4971596;28;20034;-78
2022/05/25 10:11:27;;;;;;;1.73;0.93;;;20.40;64.70;;;;;;4970049;28;20034;-77
2022/05/25 10:14:13;;;;;;;0.95;0.95;;;20.30;65.70;;;;;;4969999;28;20037;-78
2022/05/25 10:16:39;;;;;;;0.90;0.90;;;20.20;63.60;;;;;;4971645;28;20050;-79
2022/05/25 10:19:12;;;;;;;0.70;0.70;;;20.60;62.50;;;;;;4971498;28;20472;-80
2022/05/25 10:21:38;;;;;;;1.85;0.60;;;20.50;64.60;;;;;;4971531;28;20030;-78
2022/05/25 10:24:26;;;;;;;0.80;0.60;;;20.50;64.30;;;;;;4970325;28;20019;-80
2022/05/25 10:26:56;;;;;;;3.03;0.93;;;21.00;64.30;;;;;;4971324;28;20030;-81
2022/05/25 10:38:30;;;;;;;2.40;0.95;;;21.50;63.40;;;;;;4971786;28;20113;-79
2022/05/25 10:40:58;;;;;;;0.68;0.55;;;22.20;63.70;;;;;;4971516;28;20030;-80
2022/05/25 10:43:27;;;;;;;0.50;0.50;;;21.60;61.30;;;;;;4969994;28;20118;-84
2022/05/25 10:45:54;;;;;;;;;;;21.20;60.70;;;;;;4970503;28;20026;-79
2022/05/25 10:48:38;;;;;;;1.75;0.40;;;21.50;61.30;;;;;;4970453;28;19909;-83
2022/05/25 10:51:13;;;;;;;1.85;0.63;;;21.70;61.20;;;;;;4971467;28;20627;-85
2022/05/25 10:54:44;;;;;;;1.95;0.80;;;22.20;57.60;;;;;;4970042;28;20022;-83
2022/05/25 10:56:54;;;;;;;0.50;0.50;;;22.10;58.10;;;;;;4971014;28;20081;-78
2022/05/25 10:59:25;;;;;;;0.43;0.40;;;20.50;59.70;;;;;;4971235;28;20093;-79
2022/05/25 11:02:23;;;;;;;0.30;0.30;;;20.90;60.00;;;;;;4970879;28;20120;-79
2022/05/25 11:04:59;;;;;;;2.00;0.77;;;21.10;56.70;;;;;;4970389;28;20027;-80
2022/05/25 11:07:40;;;;;;;1.42;0.40;;;22.10;57.40;;;;;;4970484;28;20050;-78
2022/05/25 11:10:17;;;;;;;0.70;0.40;;;22.40;55.90;;;;;;4969023;28;20026;-78
2022/05/25 11:13:14;;;;;;;0.25;0.25;;;22.50;53.90;;;;;;4969170;28;20026;-78
2022/05/25 11:15:51;;;;;;;0.63;0.20;;;22.50;54.80;;;;;;4966446;28;20042;-85
2022/05/25 11:18:29;;;;;;;0.30;0.30;;;22.60;54.40;;;;;;4969711;28;20038;-86
2022/05/25 11:21:01;;;;;;;0.30;0.30;;;22.80;53.30;;;;;;4969082;28;20027;-79
2022/05/25 11:23:48;;;;;;;1.65;0.77;;;23.50;52.80;;;;;;4970365;28;20483;-79
2022/05/25 11:26:30;;;;;;;1.23;0.57;;;24.10;52.80;;;;;;4968543;28;20459;-79
2022/05/25 11:29:12;;;;;;;0.88;0.57;;;23.00;52.80;;;;;;4968189;28;20034;-79
2022/05/25 11:32:06;;;;;;;0.98;0.25;;;23.50;54.00;;;;;;4970341;28;20061;-78
2022/05/25 11:34:58;;;;;;;0.20;0.20;;;23.10;55.20;;;;;;4970210;28;20527;-79
2022/05/25 11:38:02;;;;;;;0.40;0.40;;;23.00;55.10;;;;;;4968286;28;20152;-80
2022/05/25 11:40:46;;;;;;;1.05;0.38;;;22.40;54.80;;;;;;4969360;28;20085;-82
2022/05/25 11:43:31;;;;;;;2.17;0.20;;;22.30;52.60;;;;;;4984799;28;20550;-84
2022/05/25 11:46:30;;;;;;;0.22;0.22;;;22.60;53.80;;;;;;4982149;28;20038;-85
2022/05/25 11:49:23;;;;;;;0.30;0.30;;;22.70;54.70;;;;;;4965165;28;20070;-85
2022/05/25 11:51:49;;;;;;;0.52;0.30;;;24.10;52.90;;;;;;4967144;28;20030;-85
2022/05/25 11:54:38;;;;;;;0.20;0.20;;;24.20;53.30;;;;;;4969011;28;20027;-81
2022/05/25 11:57:35;;;;;;;0.20;0.20;;;24.90;52.60;;;;;;4965429;28;20039;-87
2022/05/25 12:00:06;;;;;;;1.30;0.17;;;24.50;50.80;;;;;;4989333;28;20106;-85
2022/05/25 12:03:09;;;;;;;0.55;0.40;;;24.50;52.90;;;;;;4992674;28;20008;-92
2022/05/25 12:06:14;;;;;;;0.20;0.20;;;23.40;53.10;;;;;;4961362;28;20079;-89
2022/05/25 12:09:04;;;;;;;0.40;0.40;;;23.30;53.10;;;;;;4958693;28;20163;-84
2022/05/25 12:11:52;;;;;;;0.40;0.20;;;22.40;56.20;;;;;;4960372;28;20041;-85
2022/05/25 12:14:20;;;;;;;0.70;0.20;;;23.90;56.60;;;;;;4962662;28;20019;-85
2022/05/25 12:16:47;;;;;;;0.40;0.40;;;23.00;55.00;;;;;;4962362;28;20550;-79
2022/05/25 12:19:30;;;;;;;2.47;0.70;;;23.20;55.30;;;;;;4957546;28;20528;-84
2022/05/25 12:22:08;;;;;;;0.28;0.20;;;24.00;54.20;;;;;;4947639;29;20046;-85
2022/05/25 12:24:53;;;;;;;2.90;0.20;;;24.70;53.70;;;;;;4946018;29;20388;-84
2022/05/25 12:27:28;;;;;;;0.20;0.10;;;24.80;50.60;;;;;;4944996;29;20061;-85
2022/05/25 12:30:00;;;;;;;0.20;0.17;;;25.00;54.80;;;;;;4945423;29;20173;-83
2022/05/25 12:32:27;;;;;;;0.68;0.28;;;25.00;54.50;;;;;;4945387;29;20428;-84
2022/05/25 12:34:55;;;;;;;0.40;0.40;;;25.80;49.30;;;;;;4945024;29;20574;-84
2022/05/25 12:37:31;;;;;;;0.00;0.00;;;25.40;49.20;;;;;;4945842;28;20042;-86
2022/05/25 12:40:18;;;;;;;1.13;0.30;;;26.50;49.80;;;;;;4951962;29;20027;-85
2022/05/25 12:42:45;;;;;;;0.30;0.20;;;25.80;51.00;;;;;;4943152;28;20036;-87
2022/05/25 12:48:31;;;;;;;1.85;0.30;;;26.30;48.10;;;;;;4951157;29;20077;-81
2022/05/25 12:51:03;;;;;;;0.50;0.10;;;26.60;50.60;;;;;;4949781;29;20370;-82
2022/05/25 12:53:39;;;;;;;0.35;0.17;;;26.00;48.70;;;;;;4991758;28;20030;-79
2022/05/25 12:56:34;;;;;;;0.47;0.22;;;25.80;50.20;;;;;;4985165;28;20609;-85
2022/05/25 12:59:10;;;;;;;0.38;0.20;;;25.80;49.70;;;;;;4985518;28;20109;-83
2022/05/25 13:01:39;;;;;;;0.47;0.10;;;25.80;49.50;;;;;;4985442;28;20069;-81
2022/05/25 13:04:38;;;;;;;0.20;0.10;;;26.10;48.70;;;;;;4969739;28;20545;-81
2022/05/25 13:07:08;;;;;;;1.17;0.70;;;26.60;47.60;;;;;;4969333;28;20395;-87
2022/05/25 13:09:43;;;;;;;0.20;0.10;;;26.40;48.50;;;;;;4984905;28;20276;-85
2022/05/25 13:12:40;;;;;;;0.73;0.30;;;25.90;47.50;;;;;;4985094;28;20035;-85
2022/05/25 13:15:18;;;;;;;0.73;0.40;;;;;;;;;;4985622;28;20034;-86
2022/05/25 13:17:47;;;;;;;0.20;0.20;;;24.20;50.30;;;;;;4968903;28;20771;-84
2022/05/25 13:20:46;;;;;;;1.45;0.20;;;24.10;53.20;;;;;;4985885;28;20475;-85
2022/05/25 13:23:51;;;;;;;0.10;0.10;;;24.10;52.10;;;;;;4985010;28;20526;-81
2022/05/25 13:26:24;;;;;;;0.43;0.43;;;24.80;53.30;;;;;;4969296;28;20582;-83
2022/05/25 13:29:08;;;;;;;0.10;0.10;;;24.90;53.20;;;;;;4985476;28;20522;-86
2022/05/25 13:31:50;;;;;;;0.17;0.17;;;25.20;52.60;;;;;;4984963;28;20027;-82
2022/05/25 13:34:18;;;;;;;1.20;0.20;;;23.80;52.80;;;;;;4969683;28;20114;-80
2022/05/25 13:37:06;;;;;;;0.75;0.50;;;22.60;54.40;;;;;;4984525;28;20062;-82
2022/05/25 13:39:32;;;;;;;0.52;0.10;;;22.60;54.60;;;;;;4984381;28;20113;-79
2022/05/25 13:42:14;;;;;;;1.85;0.20;;;23.60;51.60;;;;;;4984728;28;20035;-79
2022/05/25 13:44:47;;;;;;;0.73;0.20;;;23.50;51.70;;;;;;4984874;28;20112;-80
2022/05/25 13:47:24;;;;;;;0.20;0.20;;;24.20;53.30;;;;;;4967747;28;20023;-80